createdAt,value
2024-02-24T00:00:01.103Z,82.11
2024-02-24T00:01:01.105Z,82.01
2024-02-24T00:02:01.082Z,82.01
2024-02-24T00:03:01.042Z,82.01
2024-02-24T00:04:01.077Z,82.01
2024-02-24T00:05:01.024Z,82.01
2024-02-24T00:06:01.133Z,82.21
2024-02-24T00:07:00.982Z,82.21
2024-02-24T00:08:00.977Z,82.11
2024-02-24T00:09:00.984Z,82.11
2024-02-24T00:10:00.978Z,82.21
2024-02-24T00:11:01.006Z,82.32
2024-02-24T00:12:00.985Z,82.21
2024-02-24T00:13:00.902Z,82.21
2024-02-24T00:14:00.914Z,82.11
2024-02-24T00:15:00.890Z,82.21
2024-02-24T00:16:00.873Z,82.21
2024-02-24T00:17:00.861Z,82.21
2024-02-24T00:18:00.959Z,82.32
2024-02-24T00:19:01.090Z,82.32
2024-02-24T00:20:00.828Z,82.42
2024-02-24T00:21:00.810Z,82.32
2024-02-24T00:22:00.789Z,82.32
2024-02-24T00:23:09.484Z,82.46
2024-02-24T00:24:09.636Z,82.56
2024-02-24T00:25:00.748Z,82.56
2024-02-24T00:26:00.763Z,82.56
2024-02-24T00:27:00.723Z,82.56
2024-02-24T00:28:00.729Z,82.46
2024-02-24T00:29:00.727Z,82.46
2024-02-24T00:30:00.738Z,82.35
2024-02-24T00:31:00.689Z,82.46
2024-02-24T00:32:00.674Z,82.35
2024-02-24T00:33:00.769Z,82.35
2024-02-24T00:34:00.738Z,82.46
2024-02-24T00:35:00.649Z,82.46
2024-02-24T00:36:00.615Z,82.46
2024-02-24T00:37:00.601Z,82.46
2024-02-24T00:38:00.610Z,82.56
2024-02-24T00:39:00.591Z,82.46
2024-02-24T00:40:00.596Z,82.56
2024-02-24T00:41:00.552Z,82.67
2024-02-24T00:42:00.546Z,82.67
2024-02-24T00:43:00.535Z,82.56
2024-02-24T00:44:00.514Z,82.67
2024-02-24T00:45:00.567Z,82.56
2024-02-24T00:46:00.486Z,82.56
2024-02-24T00:47:00.491Z,82.56
2024-02-24T00:48:00.544Z,82.56
2024-02-24T00:49:00.491Z,82.60
2024-02-24T00:50:00.433Z,82.60
2024-02-24T00:51:00.442Z,82.50
2024-02-24T00:52:00.446Z,82.60
2024-02-24T00:53:00.411Z,82.60
2024-02-24T00:54:00.421Z,82.60
2024-02-24T00:55:00.360Z,82.70
2024-02-24T00:56:00.354Z,82.81
2024-02-24T00:57:00.353Z,82.81
2024-02-24T00:58:00.319Z,82.70
2024-02-24T00:59:00.308Z,82.81
2024-02-24T01:00:00.388Z,82.81
2024-02-24T01:01:00.373Z,82.81
2024-02-24T01:02:00.294Z,82.81
2024-02-24T01:03:00.260Z,82.81
2024-02-24T01:04:00.304Z,82.81
2024-02-24T01:05:00.235Z,82.81
2024-02-24T01:06:00.262Z,82.70
2024-02-24T01:07:00.247Z,82.81
2024-02-24T01:08:00.189Z,82.81
2024-02-24T01:09:00.187Z,82.81
2024-02-24T01:10:00.187Z,82.91
2024-02-24T01:11:00.207Z,82.91
2024-02-24T01:12:00.230Z,82.91
2024-02-24T01:13:00.128Z,83.01
2024-02-24T01:14:00.256Z,83.01
2024-02-24T01:15:00.322Z,83.16
2024-02-24T01:16:00.085Z,83.16
2024-02-24T01:17:00.076Z,83.16
2024-02-24T01:18:00.211Z,83.26
2024-02-24T01:19:00.174Z,83.26
2024-02-24T01:20:00.053Z,83.26
2024-02-24T01:21:00.049Z,83.16
2024-02-24T01:22:00.008Z,83.26
2024-02-24T01:22:59.996Z,83.37
2024-02-24T01:23:59.994Z,83.37
2024-02-24T01:25:00.049Z,83.37
2024-02-24T01:25:59.956Z,83.26
2024-02-24T01:26:59.951Z,83.26
2024-02-24T01:27:59.939Z,83.47
2024-02-24T01:28:59.940Z,83.47
2024-02-24T01:29:59.905Z,83.47
2024-02-24T01:30:59.923Z,83.37
2024-02-24T01:31:59.889Z,83.47
2024-02-24T01:33:00.000Z,83.47
2024-02-24T01:34:00.163Z,83.47
2024-02-24T01:34:59.874Z,83.58
2024-02-24T01:35:59.832Z,83.58
2024-02-24T01:36:59.820Z,83.58
2024-02-24T01:37:59.808Z,83.68
2024-02-24T01:38:59.809Z,83.58
2024-02-24T01:39:59.766Z,83.58
2024-02-24T01:40:59.767Z,83.47
2024-02-24T01:41:59.752Z,83.58
2024-02-24T01:42:59.762Z,83.58
2024-02-24T01:43:59.721Z,83.68
2024-02-24T01:44:59.706Z,83.72
2024-02-24T01:45:59.689Z,83.82
2024-02-24T01:46:59.705Z,83.82
2024-02-24T01:47:59.875Z,83.72
2024-02-24T01:48:59.856Z,83.82
2024-02-24T01:49:59.666Z,83.82
2024-02-24T01:50:59.641Z,83.72
2024-02-24T01:51:59.642Z,83.72
2024-02-24T01:52:59.626Z,83.82
2024-02-24T01:53:59.598Z,83.82
2024-02-24T01:54:59.572Z,83.82
2024-02-24T01:55:59.564Z,83.72
2024-02-24T01:56:59.570Z,83.72
2024-02-24T01:57:59.550Z,83.72
2024-02-24T01:58:59.527Z,83.72
2024-02-24T01:59:59.515Z,83.72
2024-02-24T02:00:59.576Z,83.82
2024-02-24T02:01:59.557Z,83.72
2024-02-24T02:02:59.476Z,83.72
2024-02-24T02:03:59.470Z,83.72
2024-02-24T02:04:59.455Z,83.72
2024-02-24T02:05:59.549Z,83.82
2024-02-24T02:06:59.470Z,83.82
2024-02-24T02:07:59.401Z,83.82
2024-02-24T02:08:59.397Z,83.82
2024-02-24T02:09:59.444Z,83.82
2024-02-24T02:10:59.527Z,83.92
2024-02-24T02:12:03.467Z,83.92
2024-02-24T02:13:00.436Z,83.86
2024-02-24T02:13:59.330Z,83.96
2024-02-24T02:14:59.324Z,83.96
2024-02-24T02:15:59.309Z,83.96
2024-02-24T02:16:59.327Z,83.96
2024-02-24T02:17:59.430Z,83.96
2024-02-24T02:18:59.334Z,83.96
2024-02-24T02:19:59.257Z,83.96
2024-02-24T02:20:59.282Z,84.06
2024-02-24T02:21:59.221Z,84.06
2024-02-24T02:22:59.239Z,84.06
2024-02-24T02:23:59.193Z,84.17
2024-02-24T02:24:59.227Z,84.06
2024-02-24T02:25:59.186Z,84.17
2024-02-24T02:26:59.187Z,84.17
2024-02-24T02:27:59.145Z,84.27
2024-02-24T02:28:59.156Z,84.27
2024-02-24T02:29:59.136Z,84.27
2024-02-24T02:30:59.124Z,84.38
2024-02-24T02:31:59.093Z,84.27
2024-02-24T02:32:59.222Z,84.27
2024-02-24T02:33:59.149Z,84.27
2024-02-24T02:34:59.090Z,84.27
2024-02-24T02:35:59.037Z,84.27
2024-02-24T02:36:59.042Z,84.38
2024-02-24T02:37:59.008Z,84.27
2024-02-24T02:38:59.011Z,84.38
2024-02-24T02:39:59.023Z,84.38
2024-02-24T02:40:58.985Z,84.38
2024-02-24T02:41:58.961Z,84.48
2024-02-24T02:42:58.947Z,84.48
2024-02-24T02:43:58.958Z,84.48
2024-02-24T02:44:58.927Z,84.52
2024-02-24T02:45:58.915Z,84.52
2024-02-24T02:46:59.610Z,84.52
2024-02-24T02:47:59.024Z,84.52
2024-02-24T02:48:59.005Z,84.52
2024-02-24T02:49:58.856Z,84.63
2024-02-24T02:50:58.876Z,84.63
2024-02-24T02:51:58.832Z,84.73
2024-02-24T02:52:58.846Z,84.73
2024-02-24T02:53:58.816Z,84.73
2024-02-24T02:54:58.809Z,84.83
2024-02-24T02:55:58.775Z,84.83
2024-02-24T02:56:58.795Z,84.83
2024-02-24T02:57:58.762Z,84.83
2024-02-24T02:58:58.768Z,84.83
2024-02-24T02:59:58.737Z,84.94
2024-02-24T03:00:58.772Z,84.94
2024-02-24T03:01:58.707Z,84.94
2024-02-24T03:02:58.736Z,84.94
2024-02-24T03:03:58.701Z,84.94
2024-02-24T03:04:58.663Z,85.04
2024-02-24T03:05:58.697Z,85.04
2024-02-24T03:06:58.673Z,85.04
2024-02-24T03:07:58.621Z,85.14
2024-02-24T03:08:58.658Z,85.14
2024-02-24T03:09:58.600Z,85.04
2024-02-24T03:10:58.687Z,85.14
2024-02-24T03:11:58.689Z,85.04
2024-02-24T03:12:58.638Z,85.04
2024-02-24T03:13:58.544Z,85.14
2024-02-24T03:14:58.545Z,85.14
2024-02-24T03:15:58.546Z,85.25
2024-02-24T03:16:58.519Z,85.25
2024-02-24T03:17:58.544Z,85.25
2024-02-24T03:18:58.620Z,85.25
2024-02-24T03:19:58.472Z,85.25
2024-02-24T03:20:58.560Z,85.25
2024-02-24T03:21:58.463Z,85.25
2024-02-24T03:22:58.448Z,85.25
2024-02-24T03:23:58.423Z,85.25
2024-02-24T03:24:58.410Z,85.25
2024-02-24T03:25:58.474Z,85.29
2024-02-24T03:26:58.395Z,85.29
2024-02-24T03:27:58.362Z,85.29
2024-02-24T03:28:58.360Z,85.29
2024-02-24T03:29:58.362Z,85.39
2024-02-24T03:30:58.360Z,85.39
2024-02-24T03:31:58.332Z,85.39
2024-02-24T03:32:58.432Z,85.50
2024-02-24T03:33:58.368Z,85.50
2024-02-24T03:34:58.301Z,85.50
2024-02-24T03:35:58.309Z,85.50
2024-02-24T03:36:58.253Z,85.50
2024-02-24T03:37:58.250Z,85.60
2024-02-24T03:38:58.303Z,85.60
2024-02-24T03:39:58.243Z,85.60
2024-02-24T03:40:58.211Z,85.60
2024-02-24T03:41:58.250Z,85.60
2024-02-24T03:42:58.183Z,85.60
2024-02-24T03:43:58.164Z,85.50
2024-02-24T03:44:58.220Z,85.60
2024-02-24T03:45:58.128Z,85.50
2024-02-24T03:46:58.138Z,85.60
2024-02-24T03:47:58.247Z,85.71
2024-02-24T03:48:58.213Z,85.71
2024-02-24T03:49:58.082Z,85.71
2024-02-24T03:50:58.096Z,85.71
2024-02-24T03:51:58.058Z,85.81
2024-02-24T03:52:58.060Z,85.81
2024-02-24T03:53:58.036Z,85.81
2024-02-24T03:54:58.067Z,85.81
2024-02-24T03:55:58.025Z,85.91
2024-02-24T03:56:58.002Z,85.91
2024-02-24T03:57:57.992Z,86.02
2024-02-24T03:58:57.976Z,86.02
2024-02-24T03:59:58.008Z,86.02
2024-02-24T04:00:58.020Z,86.02
2024-02-24T04:01:57.936Z,86.12
2024-02-24T04:02:57.969Z,86.02
2024-02-24T04:03:57.932Z,86.12
2024-02-24T04:04:58.026Z,86.12
2024-02-24T04:05:57.996Z,86.12
2024-02-24T04:06:57.960Z,86.12
2024-02-24T04:07:57.908Z,86.12
2024-02-24T04:08:57.905Z,86.22
2024-02-24T04:09:57.808Z,86.22
2024-02-24T04:10:57.839Z,86.22
2024-02-24T04:11:57.950Z,86.22
2024-02-24T04:12:57.788Z,86.22
2024-02-24T04:13:57.776Z,86.33
2024-02-24T04:14:57.841Z,86.33
2024-02-24T04:15:57.752Z,86.33
2024-02-24T04:16:57.745Z,86.43
2024-02-24T04:17:57.787Z,86.43
2024-02-24T04:18:57.835Z,86.43
2024-02-24T04:19:57.690Z,86.43
2024-02-24T04:20:57.704Z,86.33
2024-02-24T04:21:57.667Z,86.33
2024-02-24T04:22:57.659Z,86.43
2024-02-24T04:23:57.656Z,86.43
2024-02-24T04:24:57.631Z,86.43
2024-02-24T04:25:57.642Z,86.43
2024-02-24T04:26:57.656Z,86.43
2024-02-24T04:27:57.605Z,86.43
2024-02-24T04:28:57.581Z,86.43
2024-02-24T04:29:57.600Z,86.43
2024-02-24T04:30:57.573Z,86.43
2024-02-24T04:31:57.531Z,86.43
2024-02-24T04:32:57.672Z,86.43
2024-02-24T04:33:57.566Z,86.43
2024-02-24T04:34:57.489Z,86.43
2024-02-24T04:35:57.525Z,86.43
2024-02-24T04:36:57.465Z,86.43
2024-02-24T04:37:57.465Z,86.33
2024-02-24T04:38:57.550Z,86.43
2024-02-24T04:39:57.460Z,86.43
2024-02-24T04:40:57.424Z,86.47
2024-02-24T04:41:57.494Z,86.43
2024-02-24T04:42:57.386Z,86.47
2024-02-24T04:43:57.380Z,86.37
2024-02-24T04:44:57.389Z,86.37
2024-02-24T04:45:57.347Z,86.37
2024-02-24T04:46:57.330Z,86.37
2024-02-24T04:47:57.414Z,86.37
2024-02-24T04:48:57.350Z,86.37
2024-02-24T04:49:57.327Z,86.37
2024-02-24T04:50:59.392Z,86.37
2024-02-24T04:51:57.299Z,86.37
2024-02-24T04:52:57.264Z,86.37
2024-02-24T04:53:57.264Z,86.37
2024-02-24T04:54:57.248Z,86.37
2024-02-24T04:55:57.229Z,86.47
2024-02-24T04:56:57.204Z,86.37
2024-02-24T04:57:57.195Z,86.37
2024-02-24T04:58:57.190Z,86.37
2024-02-24T04:59:57.171Z,86.37
2024-02-24T05:00:57.162Z,86.37
2024-02-24T05:01:57.146Z,86.37
2024-02-24T05:02:57.132Z,86.37
2024-02-24T05:03:57.156Z,86.37
2024-02-24T05:04:57.170Z,86.37
2024-02-24T05:05:57.214Z,86.47
2024-02-24T05:06:57.082Z,86.47
2024-02-24T05:07:57.113Z,86.58
2024-02-24T05:08:57.176Z,86.58
2024-02-24T05:09:57.043Z,86.58
2024-02-24T05:10:57.047Z,86.58
2024-02-24T05:11:57.087Z,86.58
2024-02-24T05:12:57.001Z,86.58
2024-02-24T05:13:56.987Z,86.58
2024-02-24T05:14:56.963Z,86.68
2024-02-24T05:15:56.969Z,86.79
2024-02-24T05:16:56.951Z,86.79
2024-02-24T05:17:57.037Z,86.89
2024-02-24T05:18:56.998Z,86.89
2024-02-24T05:19:56.906Z,86.89
2024-02-24T05:20:56.918Z,86.99
2024-02-24T05:21:56.904Z,86.99
2024-02-24T05:22:56.872Z,86.99
2024-02-24T05:23:56.859Z,87.10
2024-02-24T05:24:56.839Z,87.10
2024-02-24T05:25:56.830Z,87.10
2024-02-24T05:26:56.822Z,87.10
2024-02-24T05:27:56.826Z,87.20
2024-02-24T05:28:56.803Z,87.20
2024-02-24T05:29:56.810Z,87.20
2024-02-24T05:30:56.775Z,87.20
2024-02-24T05:31:56.778Z,87.30
2024-02-24T05:32:58.969Z,87.30
2024-02-24T05:33:56.868Z,87.30
2024-02-24T05:34:56.753Z,87.30
2024-02-24T05:35:56.745Z,87.30
2024-02-24T05:36:56.706Z,87.30
2024-02-24T05:37:56.673Z,87.41
2024-02-24T05:38:56.731Z,87.41
2024-02-24T05:39:56.665Z,87.41
2024-02-24T05:40:56.649Z,87.41
2024-02-24T05:41:56.640Z,87.41
2024-02-24T05:42:56.607Z,87.41
2024-02-24T05:43:56.594Z,87.41
2024-02-24T05:44:56.607Z,87.52
2024-02-24T05:45:57.392Z,87.52
2024-02-24T05:46:56.571Z,87.52
2024-02-24T05:47:56.574Z,87.52
2024-02-24T05:48:56.556Z,87.52
2024-02-24T05:49:56.542Z,87.52
2024-02-24T05:50:56.589Z,87.62
2024-02-24T05:51:56.491Z,87.62
2024-02-24T05:52:56.471Z,87.62
2024-02-24T05:53:56.575Z,87.62
2024-02-24T05:54:56.533Z,87.62
2024-02-24T05:55:56.460Z,87.62
2024-02-24T05:56:56.438Z,87.62
2024-02-24T05:57:56.411Z,87.62
2024-02-24T05:58:56.397Z,87.62
2024-02-24T05:59:56.443Z,87.62
2024-02-24T06:00:56.404Z,87.62
2024-02-24T06:01:56.351Z,87.62
2024-02-24T06:02:56.391Z,87.62
2024-02-24T06:03:56.414Z,87.52
2024-02-24T06:04:56.315Z,87.52
2024-02-24T06:05:56.366Z,87.52
2024-02-24T06:06:56.353Z,87.52
2024-02-24T06:07:56.284Z,87.52
2024-02-24T06:08:56.355Z,87.62
2024-02-24T06:09:56.265Z,87.62
2024-02-24T06:10:56.300Z,87.62
2024-02-24T06:11:56.398Z,87.62
2024-02-24T06:12:56.244Z,87.62
2024-02-24T06:13:56.211Z,87.62
2024-02-24T06:14:56.219Z,87.62
2024-02-24T06:15:56.181Z,87.52
2024-02-24T06:16:56.171Z,87.52
2024-02-24T06:17:56.224Z,87.62
2024-02-24T06:18:56.214Z,87.62
2024-02-24T06:19:56.122Z,87.62
2024-02-24T06:20:56.169Z,87.62
2024-02-24T06:21:56.127Z,87.62
2024-02-24T06:22:56.092Z,87.62
2024-02-24T06:23:56.171Z,87.62
2024-02-24T06:24:56.071Z,87.52
2024-02-24T06:25:56.036Z,87.52
2024-02-24T06:26:56.052Z,87.52
2024-02-24T06:27:56.023Z,87.52
2024-02-24T06:28:55.998Z,87.52
2024-02-24T06:29:56.072Z,87.52
2024-02-24T06:30:55.976Z,87.52
2024-02-24T06:31:55.981Z,87.52
2024-02-24T06:32:56.086Z,87.52
2024-02-24T06:33:56.039Z,87.52
2024-02-24T06:34:55.954Z,87.62
2024-02-24T06:35:56.090Z,87.62
2024-02-24T06:36:55.911Z,87.62
2024-02-24T06:37:55.913Z,87.62
2024-02-24T06:38:55.904Z,87.62
2024-02-24T06:39:55.881Z,87.52
2024-02-24T06:40:55.848Z,87.62
2024-02-24T06:41:55.910Z,87.62
2024-02-24T06:42:55.822Z,87.62
2024-02-24T06:43:55.820Z,87.62
2024-02-24T06:44:55.846Z,87.62
2024-02-24T06:45:55.817Z,87.62
2024-02-24T06:46:55.778Z,87.62
2024-02-24T06:47:55.863Z,87.62
2024-02-24T06:48:55.902Z,87.62
2024-02-24T06:49:55.761Z,87.62
2024-02-24T06:50:55.810Z,87.62
2024-02-24T06:51:55.724Z,87.73
2024-02-24T06:52:55.706Z,87.73
2024-02-24T06:53:55.804Z,87.79
2024-02-24T06:54:55.668Z,87.89
2024-02-24T06:55:55.668Z,87.96
2024-02-24T06:56:56.775Z,88.06
2024-02-24T06:57:55.674Z,88.12
2024-02-24T06:58:55.609Z,88.33
2024-02-24T06:59:55.658Z,88.19
2024-02-24T07:00:55.638Z,88.09
2024-02-24T07:01:55.576Z,87.98
2024-02-24T07:02:55.732Z,88.19
2024-02-24T07:03:55.540Z,88.09
2024-02-24T07:04:55.532Z,87.88
2024-02-24T07:05:55.622Z,87.56
2024-02-24T07:06:55.549Z,87.35
2024-02-24T07:07:55.535Z,87.25
2024-02-24T07:08:55.553Z,87.25
2024-02-24T07:09:55.476Z,87.15
2024-02-24T07:10:55.473Z,87.15
2024-02-24T07:11:55.652Z,87.25
2024-02-24T07:12:55.429Z,87.35
2024-02-24T07:13:55.431Z,87.42
2024-02-24T07:14:55.474Z,87.63
2024-02-24T07:15:55.383Z,87.79
2024-02-24T07:16:55.376Z,88.00
2024-02-24T07:17:55.506Z,88.00
2024-02-24T07:18:55.438Z,87.90
2024-02-24T07:19:55.347Z,87.69
2024-02-24T07:20:55.410Z,87.59
2024-02-24T07:21:55.321Z,87.48
2024-02-24T07:22:55.296Z,87.38
2024-02-24T07:23:55.381Z,87.38
2024-02-24T07:24:55.276Z,87.38
2024-02-24T07:25:55.251Z,87.38
2024-02-24T07:26:55.318Z,87.38
2024-02-24T07:27:55.232Z,87.48
2024-02-24T07:28:55.222Z,87.59
2024-02-24T07:29:55.339Z,87.69
2024-02-24T07:30:55.187Z,87.79
2024-02-24T07:31:55.199Z,87.90
2024-02-24T07:32:55.318Z,88.10
2024-02-24T07:33:55.400Z,88.21
2024-02-24T07:34:55.203Z,88.31
2024-02-24T07:35:55.270Z,88.42
2024-02-24T07:36:55.112Z,88.52
2024-02-24T07:37:55.115Z,88.62
2024-02-24T07:38:55.124Z,88.73
2024-02-24T07:39:55.118Z,88.79
2024-02-24T07:40:55.053Z,88.79
2024-02-24T07:41:55.116Z,88.90
2024-02-24T07:42:55.037Z,88.90
2024-02-24T07:43:55.061Z,88.90
2024-02-24T07:44:55.058Z,88.90
2024-02-24T07:45:55.040Z,88.90
2024-02-24T07:46:54.988Z,88.90
2024-02-24T07:47:55.103Z,89.00
2024-02-24T07:48:55.016Z,88.96
2024-02-24T07:49:54.978Z,89.06
2024-02-24T07:50:54.986Z,89.17
2024-02-24T07:51:54.930Z,89.27
2024-02-24T07:52:54.914Z,89.27
2024-02-24T07:53:54.913Z,89.27
2024-02-24T07:54:54.885Z,89.27
2024-02-24T07:55:54.866Z,89.34
2024-02-24T07:56:54.931Z,89.34
2024-02-24T07:57:54.839Z,89.23
2024-02-24T07:58:54.848Z,89.23
2024-02-24T07:59:54.896Z,89.23
2024-02-24T08:00:54.855Z,89.34
2024-02-24T08:01:54.798Z,89.34
2024-02-24T08:02:54.846Z,89.44
2024-02-24T08:03:54.841Z,89.54
2024-02-24T08:04:54.746Z,89.54
2024-02-24T08:05:54.825Z,89.50
2024-02-24T08:06:54.755Z,89.61
2024-02-24T08:07:54.714Z,89.61
2024-02-24T08:08:55.035Z,89.61
2024-02-24T08:09:54.698Z,89.50
2024-02-24T08:10:54.832Z,89.50
2024-02-24T08:11:54.795Z,89.46
2024-02-24T08:12:54.656Z,89.46
2024-02-24T08:13:54.667Z,89.46
2024-02-24T08:14:54.703Z,89.46
2024-02-24T08:15:54.631Z,89.46
2024-02-24T08:16:54.588Z,89.46
2024-02-24T08:17:54.656Z,89.36
2024-02-24T08:18:54.670Z,89.36
2024-02-24T08:19:54.570Z,89.31
2024-02-24T08:20:54.655Z,89.31
2024-02-24T08:21:54.569Z,89.31
2024-02-24T08:22:54.519Z,89.31
2024-02-24T08:23:54.604Z,89.31
2024-02-24T08:24:54.512Z,89.21
2024-02-24T08:25:56.568Z,89.28
2024-02-24T08:26:54.497Z,89.17
2024-02-24T08:27:54.563Z,89.28
2024-02-24T08:28:54.435Z,89.28
2024-02-24T08:29:54.474Z,89.38
2024-02-24T08:30:54.415Z,89.38
2024-02-24T08:31:54.422Z,89.23
2024-02-24T08:32:54.514Z,89.13
2024-02-24T08:33:54.457Z,89.03
2024-02-24T08:34:54.434Z,89.03
2024-02-24T08:35:54.595Z,88.92
2024-02-24T08:36:54.328Z,88.92
2024-02-24T08:37:54.360Z,88.92
2024-02-24T08:38:54.378Z,88.88
2024-02-24T08:39:54.304Z,88.88
2024-02-24T08:40:54.282Z,88.88
2024-02-24T08:41:54.392Z,88.88
2024-02-24T08:42:54.264Z,88.88
2024-02-24T08:43:54.272Z,88.84
2024-02-24T08:44:54.361Z,88.84
2024-02-24T08:45:54.267Z,88.84
2024-02-24T08:46:54.246Z,88.80
2024-02-24T08:47:54.357Z,88.70
2024-02-24T08:48:54.240Z,88.65
2024-02-24T08:49:54.288Z,88.55
2024-02-24T08:50:54.263Z,88.61
2024-02-24T08:51:54.226Z,88.71
2024-02-24T08:52:54.233Z,88.68
2024-02-24T08:53:54.169Z,88.64
2024-02-24T08:54:54.098Z,88.64
2024-02-24T08:55:54.104Z,88.49
2024-02-24T08:56:54.161Z,88.49
2024-02-24T08:57:54.094Z,88.45
2024-02-24T08:58:54.100Z,88.45
2024-02-24T08:59:54.096Z,88.31
2024-02-24T09:00:54.059Z,88.31
2024-02-24T09:01:54.035Z,88.17
2024-02-24T09:02:54.035Z,87.96
2024-02-24T09:03:54.250Z,87.71
2024-02-24T09:04:54.034Z,87.60
2024-02-24T09:05:54.083Z,87.46
2024-02-24T09:06:54.113Z,87.36
2024-02-24T09:07:53.953Z,87.22
2024-02-24T09:08:53.998Z,87.01
2024-02-24T09:09:53.921Z,86.66
2024-02-24T09:10:54.158Z,86.56
2024-02-24T09:11:54.127Z,86.56
2024-02-24T09:12:53.861Z,86.62
2024-02-24T09:13:53.849Z,86.83
2024-02-24T09:14:53.895Z,86.99
2024-02-24T09:15:53.844Z,87.20
2024-02-24T09:16:53.807Z,87.37
2024-02-24T09:17:53.870Z,87.46
2024-02-24T09:18:53.851Z,87.53
2024-02-24T09:19:53.756Z,87.70
2024-02-24T09:20:53.934Z,87.79
2024-02-24T09:21:53.758Z,87.76
2024-02-24T09:22:53.733Z,87.76
2024-02-24T09:23:53.761Z,87.30
2024-02-24T09:24:53.725Z,87.10
2024-02-24T09:25:53.697Z,86.79
2024-02-24T09:26:53.733Z,86.65
2024-02-24T09:27:53.664Z,86.44
2024-02-24T09:28:53.647Z,86.34
2024-02-24T09:29:53.712Z,86.30
2024-02-24T09:30:53.652Z,86.30
2024-02-24T09:31:53.599Z,86.26
2024-02-24T09:32:53.643Z,86.16
2024-02-24T09:33:53.649Z,85.85
2024-02-24T09:34:53.626Z,85.44
2024-02-24T09:35:53.586Z,85.34
2024-02-24T09:36:53.579Z,85.28
2024-02-24T09:37:53.529Z,85.28
2024-02-24T09:38:53.630Z,85.17
2024-02-24T09:39:53.513Z,85.17
2024-02-24T09:40:53.478Z,85.07
2024-02-24T09:41:53.536Z,84.97
2024-02-24T09:42:53.465Z,85.01
2024-02-24T09:43:53.454Z,85.01
2024-02-24T09:45:02.225Z,85.11
2024-02-24T09:45:53.484Z,84.91
2024-02-24T09:46:53.430Z,84.70
2024-02-24T09:47:53.424Z,84.80
2024-02-24T09:48:53.437Z,85.01
2024-02-24T09:49:53.360Z,85.01
2024-02-24T09:50:53.417Z,84.91
2024-02-24T09:51:53.340Z,84.70
2024-02-24T09:52:53.355Z,84.29
2024-02-24T09:53:53.416Z,84.19
2024-02-24T09:54:53.297Z,84.29
2024-02-24T09:55:53.275Z,84.36
2024-02-24T09:56:53.324Z,84.36
2024-02-24T09:57:53.280Z,84.36
2024-02-24T09:58:53.267Z,84.36
2024-02-24T09:59:53.287Z,84.15
2024-02-24T10:00:53.238Z,83.74
2024-02-24T10:01:53.248Z,83.19
2024-02-24T10:02:53.256Z,83.19
2024-02-24T10:03:53.215Z,82.98
2024-02-24T10:04:53.321Z,82.78
2024-02-24T10:05:53.218Z,82.84
2024-02-24T10:06:53.134Z,82.84
2024-02-24T10:07:53.717Z,82.95
2024-02-24T10:08:53.150Z,82.54
2024-02-24T10:09:53.097Z,81.99
2024-02-24T10:10:53.101Z,81.68
2024-02-24T10:11:53.156Z,81.74
2024-02-24T10:12:53.065Z,81.85
2024-02-24T10:13:53.059Z,81.71
2024-02-24T10:14:53.110Z,81.40
2024-02-24T10:15:53.053Z,81.20
2024-02-24T10:16:53.032Z,80.48
2024-02-24T10:17:53.077Z,80.38
2024-02-24T10:18:53.120Z,80.07
2024-02-24T10:19:53.007Z,79.97
2024-02-24T10:20:53.099Z,79.66
2024-02-24T10:21:52.999Z,79.77
2024-02-24T10:22:52.980Z,79.77
2024-02-24T10:23:52.994Z,79.05
2024-02-24T10:24:52.939Z,77.83
2024-02-24T10:25:52.935Z,76.09
2024-02-24T10:26:53.023Z,76.70
2024-02-24T10:27:52.896Z,77.01
2024-02-24T10:28:52.922Z,77.31
2024-02-24T10:29:53.020Z,77.93
2024-02-24T10:30:52.837Z,77.83
2024-02-24T10:31:52.791Z,78.13
2024-02-24T10:32:52.893Z,78.03
2024-02-24T10:33:52.861Z,77.11
2024-02-24T10:34:52.826Z,76.16
2024-02-24T10:35:52.893Z,76.56
2024-02-24T10:36:52.745Z,76.87
2024-02-24T10:38:10.207Z,76.56
2024-02-24T10:38:56.088Z,76.84
2024-02-24T10:39:52.764Z,76.73
2024-02-24T10:40:52.701Z,75.71
2024-02-24T10:41:52.750Z,74.90
2024-02-24T10:42:52.684Z,75.61
2024-02-24T10:43:56.346Z,76.12
2024-02-24T10:44:53.662Z,76.22
2024-02-24T10:45:52.610Z,76.63
2024-02-24T10:46:52.642Z,76.73
2024-02-24T10:47:53.003Z,76.32
2024-02-24T10:48:52.732Z,76.53
2024-02-24T10:49:52.665Z,75.82
2024-02-24T10:50:52.602Z,74.69
2024-02-24T10:51:52.648Z,73.84
2024-02-24T10:52:52.625Z,74.05
2024-02-24T10:53:57.797Z,74.76
2024-02-24T10:54:52.495Z,74.83
2024-02-24T10:55:52.475Z,75.13
2024-02-24T10:56:52.495Z,74.18
2024-02-24T10:57:52.537Z,73.64
2024-02-24T10:58:52.506Z,73.84
2024-02-24T10:59:52.492Z,73.40
2024-02-24T11:00:52.567Z,71.26
2024-02-24T11:01:52.416Z,71.97
2024-02-24T11:02:52.448Z,71.84
2024-02-24T11:03:52.533Z,71.53
2024-02-24T11:04:52.353Z,70.31
2024-02-24T11:05:52.521Z,70.92
2024-02-24T11:06:52.451Z,70.82
2024-02-24T11:07:52.369Z,70.92
2024-02-24T11:08:52.368Z,70.51
2024-02-24T11:09:52.331Z,69.29
2024-02-24T11:10:52.343Z,70.10
2024-02-24T11:11:52.331Z,70.41
2024-02-24T11:12:52.275Z,70.82
2024-02-24T11:14:00.336Z,71.23
2024-02-24T11:14:53.424Z,71.43
2024-02-24T11:15:52.208Z,71.53
2024-02-24T11:16:52.235Z,71.43
2024-02-24T11:17:52.346Z,71.33
2024-02-24T11:18:52.290Z,70.82
2024-02-24T11:19:52.199Z,71.53
2024-02-24T11:20:52.254Z,71.43
2024-02-24T11:21:52.169Z,71.23
2024-02-24T11:22:52.236Z,71.53
2024-02-24T11:23:52.122Z,71.84
2024-02-24T11:24:52.102Z,71.94
2024-02-24T11:25:52.076Z,71.43
2024-02-24T11:26:52.195Z,71.73
2024-02-24T11:27:52.057Z,71.53
2024-02-24T11:28:52.037Z,71.64
2024-02-24T11:29:52.033Z,70.31
2024-02-24T11:30:52.006Z,71.12
2024-02-24T11:31:52.017Z,71.43
2024-02-24T11:32:52.064Z,71.43
2024-02-24T11:33:52.112Z,71.53
2024-02-24T11:34:52.011Z,71.53
2024-02-24T11:35:52.214Z,70.31
2024-02-24T11:36:52.136Z,70.92
2024-02-24T11:37:51.925Z,71.23
2024-02-24T11:38:51.996Z,70.51
2024-02-24T11:39:51.919Z,70.01
2024-02-24T11:40:51.922Z,70.48
2024-02-24T11:41:51.985Z,70.79
2024-02-24T11:42:51.857Z,70.99
2024-02-24T11:43:51.836Z,71.23
2024-02-24T11:44:52.067Z,71.23
2024-02-24T11:45:51.825Z,71.53
2024-02-24T11:46:51.808Z,71.43
2024-02-24T11:47:51.941Z,71.64
2024-02-24T11:48:51.948Z,71.94
2024-02-24T11:49:51.784Z,71.84
2024-02-24T11:50:51.857Z,71.84
2024-02-24T11:51:51.728Z,71.94
2024-02-24T11:52:51.737Z,71.53
2024-02-24T11:53:51.748Z,71.84
2024-02-24T11:54:51.707Z,71.02
2024-02-24T11:55:51.692Z,71.02
2024-02-24T11:56:51.871Z,71.23
2024-02-24T11:57:51.649Z,71.43
2024-02-24T11:58:51.658Z,71.73
2024-02-24T11:59:51.782Z,71.64
2024-02-24T12:00:51.668Z,71.43
2024-02-24T12:01:51.597Z,70.55
2024-02-24T12:02:51.621Z,70.86
2024-02-24T12:03:51.627Z,70.65
2024-02-24T12:04:51.625Z,70.34
2024-02-24T12:05:51.612Z,69.76
2024-02-24T12:06:51.612Z,69.87
2024-02-24T12:07:51.519Z,69.56
2024-02-24T12:08:51.576Z,69.87
2024-02-24T12:09:52.718Z,70.28
2024-02-24T12:10:51.558Z,71.09
2024-02-24T12:11:51.544Z,70.89
2024-02-24T12:12:51.457Z,71.43
2024-02-24T12:13:51.455Z,71.53
2024-02-24T12:14:51.497Z,71.60
2024-02-24T12:15:51.407Z,71.91
2024-02-24T12:16:51.397Z,71.70
2024-02-24T12:17:51.537Z,71.70
2024-02-24T12:18:51.522Z,71.39
2024-02-24T12:19:51.374Z,71.50
2024-02-24T12:20:51.395Z,71.47
2024-02-24T12:21:51.346Z,71.36
2024-02-24T12:22:51.334Z,69.63
2024-02-24T12:23:51.327Z,69.26
2024-02-24T12:24:51.290Z,69.56
2024-02-24T12:25:51.284Z,69.46
2024-02-24T12:26:51.327Z,70.17
2024-02-24T12:27:51.264Z,70.28
2024-02-24T12:28:51.236Z,70.28
2024-02-24T12:29:51.269Z,70.28
2024-02-24T12:30:51.212Z,70.58
2024-02-24T12:31:51.193Z,70.58
2024-02-24T12:32:51.320Z,69.87
2024-02-24T12:33:51.287Z,69.76
2024-02-24T12:34:51.255Z,69.76
2024-02-24T12:35:51.217Z,70.48
2024-02-24T12:36:51.150Z,70.58
2024-02-24T12:37:51.125Z,70.99
2024-02-24T12:38:51.201Z,70.99
2024-02-24T12:39:51.085Z,70.78
2024-02-24T12:40:51.084Z,70.78
2024-02-24T12:41:51.134Z,70.99
2024-02-24T12:42:51.051Z,70.58
2024-02-24T12:43:51.093Z,71.02
2024-02-24T12:44:51.066Z,70.51
2024-02-24T12:45:51.027Z,70.31
2024-02-24T12:46:51.084Z,69.90
2024-02-24T12:47:51.142Z,69.90
2024-02-24T12:48:51.115Z,69.59
2024-02-24T12:49:51.066Z,69.83
2024-02-24T12:50:51.011Z,69.73
2024-02-24T12:51:50.932Z,70.14